createdAt,value
2018-08-31T00:00:02.673Z,2.17
2018-08-31T00:02:46.493Z,2.43
2018-08-31T00:05:36.655Z,1.87
2018-08-31T00:08:17.774Z,1.90
2018-08-31T00:11:27.034Z,2.17
2018-08-31T00:13:56.479Z,3.67
2018-08-31T00:16:25.914Z,3.10
2018-08-31T00:18:55.332Z,2.13
2018-08-31T00:21:25.461Z,2.50
2018-08-31T00:25:03.985Z,2.87
2018-08-31T00:27:44.383Z,2.13
2018-08-31T00:30:24.880Z,2.23
2018-08-31T00:37:12.590Z,1.93
2018-08-31T00:39:53.313Z,2.50
2018-08-31T00:43:34.210Z,1.93
2018-08-31T00:46:03.562Z,2.23
2018-08-31T00:48:33.109Z,2.20
2018-08-31T00:51:03.564Z,2.60
2018-08-31T00:53:33.515Z,2.80
2018-08-31T00:56:02.960Z,2.67
2018-08-31T00:58:32.340Z,2.13
2018-08-31T01:01:01.692Z,2.53
2018-08-31T01:03:31.073Z,2.40
2018-08-31T01:06:02.312Z,2.10
2018-08-31T01:08:31.616Z,2.90
2018-08-31T01:11:00.911Z,2.37
2018-08-31T01:13:31.281Z,1.97
2018-08-31T01:16:00.810Z,1.87
2018-08-31T01:18:31.026Z,2.10
2018-08-31T01:21:01.278Z,3.50
2018-08-31T01:23:30.679Z,2.10
2018-08-31T01:26:00.777Z,2.43
2018-08-31T01:28:30.457Z,2.67
2018-08-31T01:30:59.958Z,2.93
2018-08-31T01:33:29.470Z,1.63
2018-08-31T01:35:58.945Z,2.30
2018-08-31T01:38:28.433Z,2.67
2018-08-31T01:40:57.744Z,3.70
2018-08-31T01:43:27.844Z,2.63
2018-08-31T01:45:57.607Z,2.20
2018-08-31T01:48:27.430Z,2.30
2018-08-31T01:51:02.280Z,3.27
2018-08-31T01:53:31.861Z,2.93
2018-08-31T01:56:01.214Z,3.20
2018-08-31T01:58:30.886Z,1.87
2018-08-31T02:01:00.427Z,2.60
2018-08-31T02:03:29.864Z,2.40
2018-08-31T02:05:59.436Z,2.20
2018-08-31T02:08:29.248Z,3.00
2018-08-31T02:10:59.246Z,2.83
2018-08-31T02:13:29.776Z,2.07
2018-08-31T02:16:00.502Z,2.50
2018-08-31T02:18:30.222Z,2.10
2018-08-31T02:21:00.023Z,2.37
2018-08-31T02:23:29.847Z,3.50
2018-08-31T02:25:59.405Z,3.67
2018-08-31T02:28:29.685Z,3.70
2018-08-31T02:30:59.382Z,2.13
2018-08-31T02:33:29.399Z,2.73
2018-08-31T02:35:59.181Z,1.40
2018-08-31T02:38:28.735Z,2.40
2018-08-31T02:40:59.042Z,2.40
2018-08-31T02:43:29.028Z,2.93
2018-08-31T02:45:58.705Z,2.53
2018-08-31T02:48:29.184Z,2.20
2018-08-31T02:50:58.900Z,2.00
2018-08-31T02:53:29.314Z,3.10
2018-08-31T02:55:58.973Z,2.53
2018-08-31T02:58:28.919Z,2.80
2018-08-31T03:00:58.998Z,3.70
2018-08-31T03:03:29.310Z,3.20
2018-08-31T03:05:59.048Z,2.20
2018-08-31T03:08:30.289Z,3.20
2018-08-31T03:10:59.886Z,2.57
2018-08-31T03:13:29.431Z,2.60
2018-08-31T03:15:58.980Z,2.97
2018-08-31T03:18:28.616Z,2.30
2018-08-31T03:20:57.962Z,2.67
2018-08-31T03:23:27.785Z,2.70
2018-08-31T03:25:57.177Z,2.00
2018-08-31T03:28:26.977Z,3.50
2018-08-31T03:30:56.523Z,2.20
2018-08-31T03:33:26.360Z,2.37
2018-08-31T03:35:56.419Z,2.30
2018-08-31T03:38:25.921Z,2.43
2018-08-31T03:40:55.496Z,2.87
2018-08-31T03:43:24.989Z,3.03
2018-08-31T03:45:55.758Z,3.47
2018-08-31T03:48:25.679Z,2.60
2018-08-31T03:50:55.462Z,3.83
2018-08-31T03:53:24.913Z,2.70
2018-08-31T03:55:54.510Z,2.77
2018-08-31T03:58:25.034Z,2.70
2018-08-31T04:00:54.578Z,2.97
2018-08-31T04:03:24.483Z,2.30
2018-08-31T04:05:54.169Z,2.30
2018-08-31T04:08:25.425Z,3.27
2018-08-31T04:10:56.591Z,1.97
2018-08-31T04:13:26.430Z,2.90
2018-08-31T04:15:56.157Z,2.77
2018-08-31T04:18:26.155Z,2.60
2018-08-31T04:20:55.685Z,2.67
2018-08-31T04:23:25.302Z,2.57
2018-08-31T04:25:54.805Z,2.20
2018-08-31T04:28:25.937Z,2.70
2018-08-31T04:30:56.587Z,3.03
2018-08-31T04:33:27.224Z,2.40
2018-08-31T04:35:57.355Z,2.63
2018-08-31T04:38:27.056Z,2.50
2018-08-31T04:40:57.310Z,2.70
2018-08-31T04:43:27.063Z,3.80
2018-08-31T04:45:56.693Z,2.20
2018-08-31T04:48:26.816Z,2.40
2018-08-31T04:50:56.571Z,2.80
2018-08-31T04:53:26.078Z,2.90
2018-08-31T04:55:55.810Z,2.93
2018-08-31T04:58:26.728Z,2.13
2018-08-31T05:00:56.769Z,2.67
2018-08-31T05:03:27.214Z,2.80
2018-08-31T05:05:57.320Z,2.70
2018-08-31T05:08:26.829Z,3.70
2018-08-31T05:10:56.507Z,2.80
2018-08-31T05:13:27.253Z,2.23
2018-08-31T05:15:56.886Z,3.10
2018-08-31T05:18:26.354Z,2.53
2018-08-31T05:20:55.992Z,2.47
2018-08-31T05:23:25.910Z,2.80
2018-08-31T05:25:55.670Z,3.43
2018-08-31T05:28:25.129Z,2.90
2018-08-31T05:30:54.669Z,3.80
2018-08-31T05:33:24.142Z,2.60
2018-08-31T05:35:53.994Z,3.20
2018-08-31T05:38:23.692Z,2.80
2018-08-31T05:40:53.344Z,2.53
2018-08-31T05:43:23.254Z,3.37
2018-08-31T05:45:53.000Z,2.40
2018-08-31T05:48:22.541Z,3.50
2018-08-31T05:50:52.158Z,2.73
2018-08-31T05:53:22.804Z,2.60
2018-08-31T05:55:52.286Z,2.23
2018-08-31T05:58:21.965Z,2.13
2018-08-31T06:00:51.710Z,2.70
2018-08-31T06:03:21.694Z,2.13
2018-08-31T06:05:51.512Z,2.40
2018-08-31T06:08:21.108Z,2.67
2018-08-31T06:10:50.923Z,2.80
2018-08-31T06:13:20.641Z,2.87
2018-08-31T06:15:51.070Z,2.73
2018-08-31T06:18:21.086Z,2.50
2018-08-31T06:20:50.692Z,2.40
2018-08-31T06:23:20.298Z,2.37
2018-08-31T06:25:49.728Z,2.90
2018-08-31T06:28:19.125Z,2.57
2018-08-31T06:30:49.325Z,2.80
2018-08-31T06:33:18.654Z,2.07
2018-08-31T06:35:47.999Z,2.50
2018-08-31T06:38:17.412Z,2.10
2018-08-31T06:40:46.891Z,4.40
2018-08-31T06:43:16.314Z,3.00
2018-08-31T06:45:45.732Z,2.27
2018-08-31T06:48:15.049Z,2.60
2018-08-31T06:50:44.414Z,2.33
2018-08-31T06:53:18.476Z,2.90
2018-08-31T06:55:47.876Z,3.63
2018-08-31T06:58:17.619Z,2.33
2018-08-31T07:00:47.073Z,2.60
2018-08-31T07:03:16.429Z,2.83
2018-08-31T07:05:45.725Z,2.10
2018-08-31T07:08:20.109Z,2.77
2018-08-31T07:10:49.498Z,3.00
2018-08-31T07:13:19.036Z,2.20
2018-08-31T07:15:48.404Z,2.87
2018-08-31T07:18:18.938Z,3.17
2018-08-31T07:20:48.313Z,2.90
2018-08-31T07:23:17.749Z,3.03
2018-08-31T07:25:47.080Z,3.50
2018-08-31T07:28:17.052Z,3.07
2018-08-31T07:30:46.669Z,2.53
2018-08-31T07:33:15.962Z,2.03
2018-08-31T07:35:45.256Z,2.90
2018-08-31T07:38:14.533Z,2.97
2018-08-31T07:40:44.053Z,3.13
2018-08-31T07:43:13.616Z,3.07
2018-08-31T07:45:43.023Z,2.83
2018-08-31T07:48:12.380Z,2.97
2018-08-31T07:50:41.727Z,3.10
2018-08-31T07:53:11.471Z,2.67
2018-08-31T07:55:41.030Z,3.17
2018-08-31T07:58:10.468Z,3.13
2018-08-31T08:00:39.825Z,3.37
2018-08-31T08:03:09.229Z,3.13
2018-08-31T08:05:38.515Z,3.33
2018-08-31T08:08:07.866Z,2.73
2018-08-31T08:10:37.221Z,3.03
2018-08-31T08:13:06.799Z,3.03
2018-08-31T08:15:36.177Z,4.17
2018-08-31T08:18:05.541Z,3.40
2018-08-31T08:20:36.162Z,3.17
2018-08-31T08:23:05.657Z,3.13
2018-08-31T08:25:35.220Z,3.47
2018-08-31T08:35:04.099Z,3.40
2018-08-31T08:37:33.475Z,3.97
2018-08-31T08:40:02.915Z,3.20
2018-08-31T08:42:32.390Z,3.97
2018-08-31T08:45:01.610Z,3.40
2018-08-31T08:47:30.894Z,3.20
2018-08-31T08:50:00.312Z,2.57
2018-08-31T08:52:29.596Z,3.43
2018-08-31T08:54:59.751Z,3.83
2018-08-31T08:57:29.530Z,4.20
2018-08-31T08:59:59.176Z,3.63
2018-08-31T09:02:28.641Z,3.43
2018-08-31T09:04:58.101Z,2.50
2018-08-31T09:07:27.611Z,3.40
2018-08-31T09:09:57.011Z,4.83
2018-08-31T09:12:26.522Z,3.83
2018-08-31T09:14:55.982Z,3.07
2018-08-31T09:17:25.408Z,3.10
2018-08-31T09:19:55.125Z,3.90
2018-08-31T09:22:25.645Z,4.60
2018-08-31T09:24:55.154Z,4.87
2018-08-31T09:27:29.000Z,4.00
2018-08-31T09:29:58.710Z,3.77
2018-08-31T09:32:28.564Z,5.00
2018-08-31T09:34:59.284Z,4.53
2018-08-31T09:37:28.746Z,4.30
2018-08-31T09:39:58.489Z,4.40
2018-08-31T09:42:27.993Z,4.30
2018-08-31T09:44:57.620Z,5.07
2018-08-31T09:47:27.207Z,3.60
2018-08-31T09:49:56.733Z,4.10
2018-08-31T09:52:26.133Z,4.50
2018-08-31T09:54:56.042Z,5.20
2018-08-31T09:57:25.898Z,4.70
2018-08-31T09:59:56.667Z,4.37
2018-08-31T10:03:32.302Z,3.50
2018-08-31T10:06:01.735Z,4.50
2018-08-31T10:08:31.904Z,4.37
2018-08-31T10:11:01.855Z,5.40
2018-08-31T10:13:32.630Z,4.83
2018-08-31T10:16:03.830Z,4.60
2018-08-31T10:18:33.383Z,4.90
2018-08-31T10:21:02.766Z,4.30
2018-08-31T10:23:32.289Z,3.87
2018-08-31T10:26:01.633Z,5.50
2018-08-31T10:28:33.898Z,3.90
2018-08-31T10:31:03.342Z,3.80
2018-08-31T10:33:32.617Z,4.97
2018-08-31T10:36:02.162Z,4.57
2018-08-31T10:38:31.957Z,4.10
2018-08-31T10:41:02.717Z,4.00
2018-08-31T10:43:32.571Z,4.17
2018-08-31T10:46:02.223Z,4.37
2018-08-31T10:48:31.889Z,4.03
2018-08-31T10:51:01.615Z,3.53
2018-08-31T10:53:31.445Z,4.03
2018-08-31T10:56:01.276Z,4.47
2018-08-31T10:58:30.954Z,4.87
2018-08-31T11:01:00.594Z,4.40
2018-08-31T11:03:30.419Z,4.23
2018-08-31T11:06:00.221Z,4.43
2018-08-31T11:08:29.732Z,4.20
2018-08-31T11:10:59.419Z,5.07
2018-08-31T11:13:29.445Z,4.73
2018-08-31T11:15:58.957Z,5.10
2018-08-31T11:18:28.273Z,5.33
2018-08-31T11:20:57.950Z,4.70
2018-08-31T11:23:27.851Z,4.27
2018-08-31T11:25:57.277Z,4.70
2018-08-31T11:28:26.679Z,3.60
2018-08-31T11:30:56.091Z,4.07
2018-08-31T11:33:25.664Z,4.40
2018-08-31T11:35:55.767Z,4.27
2018-08-31T11:38:27.949Z,4.67
2018-08-31T11:40:57.561Z,3.63
2018-08-31T11:43:27.351Z,4.90
2018-08-31T11:45:56.721Z,4.70
2018-08-31T11:48:26.508Z,4.43
2018-08-31T11:50:56.091Z,4.00
2018-08-31T11:53:25.910Z,4.23
2018-08-31T11:55:55.643Z,4.67
2018-08-31T11:58:25.367Z,4.50
2018-08-31T12:00:55.066Z,4.87
2018-08-31T12:03:24.553Z,4.50
2018-08-31T12:05:54.046Z,4.90
2018-08-31T12:08:24.243Z,4.20
2018-08-31T12:10:54.767Z,4.10
2018-08-31T12:13:26.406Z,3.80
2018-08-31T12:15:56.584Z,4.53
2018-08-31T12:18:27.068Z,4.87
2018-08-31T12:20:56.920Z,4.43
2018-08-31T12:23:29.167Z,4.50
2018-08-31T12:25:59.014Z,4.80
2018-08-31T12:28:29.152Z,4.43
2018-08-31T12:30:58.847Z,4.50
2018-08-31T12:33:28.435Z,4.80
2018-08-31T12:35:57.939Z,4.83
2018-08-31T12:38:27.827Z,5.20
2018-08-31T12:40:57.629Z,3.90
2018-08-31T12:43:27.687Z,4.20
2018-08-31T12:45:57.309Z,4.63
2018-08-31T12:48:27.146Z,4.37
2018-08-31T12:50:56.609Z,4.20
2018-08-31T12:53:26.385Z,4.30
2018-08-31T12:55:55.882Z,4.30
2018-08-31T12:58:25.582Z,4.10
2018-08-31T13:00:55.249Z,4.20
2018-08-31T13:03:24.818Z,4.27
2018-08-31T13:05:54.481Z,5.10
2018-08-31T13:08:24.326Z,4.83
2018-08-31T13:10:54.166Z,5.80
2018-08-31T13:13:23.851Z,4.60
2018-08-31T13:15:53.868Z,4.60
2018-08-31T13:18:23.427Z,3.70
2018-08-31T13:20:52.933Z,4.40
2018-08-31T13:23:22.781Z,4.40
2018-08-31T13:25:52.383Z,3.90
2018-08-31T13:28:22.437Z,3.97
2018-08-31T13:30:52.280Z,4.33
2018-08-31T13:33:22.507Z,4.33
2018-08-31T13:35:52.146Z,3.40
2018-08-31T13:38:21.894Z,4.00
2018-08-31T13:40:51.692Z,4.03
2018-08-31T13:43:21.457Z,4.77
2018-08-31T13:45:51.140Z,4.43
2018-08-31T13:48:20.810Z,4.40
2018-08-31T13:50:50.330Z,5.10
2018-08-31T13:53:19.760Z,3.93
2018-08-31T13:55:49.124Z,4.13
2018-08-31T13:58:18.585Z,3.83
2018-08-31T14:00:47.850Z,4.60
2018-08-31T14:03:17.262Z,4.07
2018-08-31T14:05:46.657Z,4.07
2018-08-31T14:08:17.493Z,4.10
2018-08-31T14:10:46.827Z,4.20
2018-08-31T14:13:16.200Z,4.43
2018-08-31T14:15:45.620Z,4.77
2018-08-31T14:18:14.892Z,4.57
2018-08-31T14:20:44.105Z,4.70
2018-08-31T14:23:13.445Z,4.43
2018-08-31T14:25:42.729Z,4.67
2018-08-31T14:28:12.806Z,3.57
2018-08-31T14:30:42.129Z,4.70
2018-08-31T14:33:11.489Z,4.07
2018-08-31T14:35:40.841Z,4.83
2018-08-31T14:38:10.131Z,4.10
2018-08-31T14:40:39.543Z,4.80
2018-08-31T14:43:08.792Z,5.60
2018-08-31T14:45:38.146Z,3.60
2018-08-31T14:48:07.409Z,3.60
2018-08-31T14:50:36.975Z,3.87
2018-08-31T14:53:06.306Z,3.70
2018-08-31T14:55:35.830Z,3.90
2018-08-31T14:58:05.617Z,3.37
2018-08-31T15:00:35.060Z,4.40
2018-08-31T15:03:04.616Z,4.20
2018-08-31T15:05:34.098Z,4.00
2018-08-31T15:08:03.606Z,3.63
2018-08-31T15:10:33.146Z,4.23
2018-08-31T15:13:03.017Z,4.13
2018-08-31T15:15:32.380Z,4.87
2018-08-31T15:18:01.939Z,3.93
2018-08-31T15:20:31.549Z,4.00
2018-08-31T15:23:01.258Z,3.80
2018-08-31T15:25:31.273Z,4.00
2018-08-31T15:28:01.014Z,3.60
2018-08-31T15:30:30.655Z,4.23
2018-08-31T15:33:00.054Z,3.70
2018-08-31T15:35:30.031Z,4.10
2018-08-31T15:38:00.043Z,3.57
2018-08-31T15:40:29.675Z,3.43
2018-08-31T15:42:59.256Z,2.87
2018-08-31T15:45:28.860Z,4.37
2018-08-31T15:47:58.711Z,3.97
2018-08-31T15:50:28.431Z,4.33
2018-08-31T15:52:58.054Z,3.73
2018-08-31T15:55:29.147Z,3.27
2018-08-31T15:57:59.314Z,3.30
2018-08-31T16:00:29.126Z,4.10
2018-08-31T16:02:58.712Z,3.63
2018-08-31T16:05:30.042Z,3.30
2018-08-31T16:07:59.926Z,3.47
2018-08-31T16:10:29.812Z,5.07
2018-08-31T16:12:59.496Z,2.63
2018-08-31T16:15:29.373Z,3.63
2018-08-31T16:17:59.266Z,3.90
2018-08-31T16:20:29.100Z,4.20
2018-08-31T16:22:59.075Z,3.80
2018-08-31T16:25:28.886Z,3.93
2018-08-31T16:27:58.460Z,4.20
2018-08-31T16:30:28.246Z,3.87
2018-08-31T16:32:57.845Z,3.40
2018-08-31T16:35:28.344Z,3.33
2018-08-31T16:37:58.229Z,3.80
2018-08-31T16:40:27.962Z,3.10
2018-08-31T16:42:57.898Z,3.30
2018-08-31T16:45:27.420Z,2.97
2018-08-31T16:47:56.978Z,3.97
2018-08-31T16:50:27.134Z,3.10
2018-08-31T16:52:56.742Z,4.23
2018-08-31T16:55:26.486Z,3.13
2018-08-31T16:57:56.593Z,3.30
2018-08-31T17:00:26.242Z,3.03
2018-08-31T17:02:55.960Z,4.07
2018-08-31T17:05:26.411Z,3.37
2018-08-31T17:07:56.175Z,4.00
2018-08-31T17:10:25.881Z,3.57
2018-08-31T17:12:55.396Z,3.57
2018-08-31T17:15:25.017Z,3.23
2018-08-31T17:17:54.658Z,3.30
2018-08-31T17:20:24.131Z,2.80
2018-08-31T17:22:53.891Z,3.63
2018-08-31T17:25:24.045Z,3.07
2018-08-31T17:27:58.912Z,2.60
2018-08-31T17:30:28.452Z,3.83
2018-08-31T17:33:03.387Z,2.97
2018-08-31T17:35:38.057Z,3.97
2018-08-31T17:38:07.466Z,3.80
2018-08-31T17:40:36.814Z,2.53
2018-08-31T17:43:06.559Z,2.50
2018-08-31T17:45:36.709Z,3.77
2018-08-31T17:48:06.210Z,3.70
2018-08-31T17:50:35.498Z,3.33
2018-08-31T17:53:04.878Z,4.03
2018-08-31T17:55:34.188Z,3.57
2018-08-31T17:58:03.428Z,3.50
2018-08-31T18:00:32.864Z,3.00
2018-08-31T18:03:02.284Z,3.23
2018-08-31T18:05:31.766Z,3.50
2018-08-31T18:08:01.307Z,3.33
2018-08-31T18:10:31.160Z,4.40
2018-08-31T18:13:00.523Z,3.30
2018-08-31T18:15:30.295Z,2.97
2018-08-31T18:17:59.915Z,3.40
2018-08-31T18:20:29.368Z,3.70
2018-08-31T18:22:58.788Z,3.87
2018-08-31T18:25:28.428Z,3.43
2018-08-31T18:27:57.865Z,3.97
2018-08-31T18:30:27.518Z,3.80
2018-08-31T18:32:57.157Z,3.83
2018-08-31T18:35:26.738Z,3.60
2018-08-31T18:37:58.783Z,3.30
2018-08-31T18:40:28.253Z,3.00
2018-08-31T18:42:58.455Z,3.60
2018-08-31T18:45:28.415Z,3.30
2018-08-31T18:47:59.538Z,2.90
2018-08-31T18:50:32.319Z,2.97
2018-08-31T18:53:02.028Z,2.93
2018-08-31T18:55:31.999Z,3.33
2018-08-31T18:58:01.456Z,4.60
2018-08-31T19:00:32.045Z,2.80
2018-08-31T19:03:01.536Z,3.80
2018-08-31T19:05:31.108Z,2.97
2018-08-31T19:08:00.800Z,2.80
2018-08-31T19:10:31.715Z,3.13
2018-08-31T19:13:01.469Z,3.73
2018-08-31T19:15:30.949Z,3.50
2018-08-31T19:18:00.631Z,5.10
2018-08-31T19:20:30.481Z,3.40
2018-08-31T19:22:59.985Z,4.00
2018-08-31T19:25:29.878Z,3.50
2018-08-31T19:27:59.921Z,3.27
2018-08-31T19:30:29.731Z,4.03
2018-08-31T19:32:59.289Z,2.70
2018-08-31T19:35:29.337Z,2.90
2018-08-31T19:37:59.047Z,3.43
2018-08-31T19:40:28.749Z,3.93
2018-08-31T19:42:58.309Z,3.30
2018-08-31T19:45:27.934Z,3.93
2018-08-31T19:47:57.626Z,4.67
2018-08-31T19:50:27.216Z,4.33
2018-08-31T19:52:56.939Z,3.67
2018-08-31T19:55:28.849Z,4.07
2018-08-31T19:57:58.712Z,3.10
2018-08-31T20:00:28.348Z,3.90
2018-08-31T20:02:58.127Z,3.93
2018-08-31T20:05:27.861Z,3.97
2018-08-31T20:07:57.616Z,3.23
2018-08-31T20:10:27.621Z,3.77
2018-08-31T20:12:57.361Z,4.13
2018-08-31T20:15:26.807Z,4.13
2018-08-31T20:17:56.309Z,5.00
2018-08-31T20:20:26.313Z,3.87
2018-08-31T20:22:56.055Z,3.17
2018-08-31T20:25:25.663Z,4.50
2018-08-31T20:27:55.345Z,3.97
2018-08-31T20:30:25.100Z,3.50
2018-08-31T20:32:54.766Z,3.50
2018-08-31T20:35:24.337Z,5.23
2018-08-31T20:37:53.940Z,4.77
2018-08-31T20:40:23.549Z,6.00
2018-08-31T20:42:52.981Z,5.13
2018-08-31T20:45:22.485Z,4.20
2018-08-31T20:47:52.092Z,5.00
2018-08-31T20:50:22.064Z,4.23
2018-08-31T20:52:52.382Z,4.53
2018-08-31T20:55:22.061Z,4.57
2018-08-31T20:57:52.645Z,3.90
2018-08-31T21:00:21.947Z,5.03
2018-08-31T21:02:51.540Z,4.23
2018-08-31T21:05:20.965Z,5.20
2018-08-31T21:07:50.197Z,4.43
2018-08-31T21:10:19.656Z,4.63
2018-08-31T21:12:48.955Z,3.80
2018-08-31T21:15:18.488Z,4.47
2018-08-31T21:17:47.810Z,4.80
2018-08-31T21:20:17.032Z,4.93
2018-08-31T21:22:46.252Z,3.37
2018-08-31T21:25:16.530Z,3.80
2018-08-31T21:27:45.789Z,3.87
2018-08-31T21:30:16.139Z,5.00
2018-08-31T21:32:45.578Z,4.80
2018-08-31T21:35:14.961Z,5.63
2018-08-31T21:37:44.337Z,4.30
2018-08-31T21:40:14.214Z,3.60
2018-08-31T21:42:43.556Z,4.60
2018-08-31T21:45:12.868Z,3.47
2018-08-31T21:47:42.253Z,4.50
2018-08-31T21:50:11.521Z,4.67
2018-08-31T21:52:41.460Z,4.40
2018-08-31T21:55:11.126Z,5.17
2018-08-31T21:57:40.393Z,4.83
2018-08-31T22:00:13.355Z,4.00
2018-08-31T22:02:42.595Z,5.00
2018-08-31T22:05:11.822Z,3.93
2018-08-31T22:07:41.172Z,4.70
2018-08-31T22:10:10.470Z,4.40
2018-08-31T22:12:39.781Z,4.30
2018-08-31T22:15:15.153Z,5.20
2018-08-31T22:17:44.844Z,4.20
2018-08-31T22:20:14.143Z,4.40
2018-08-31T22:22:43.505Z,4.20
2018-08-31T22:25:12.905Z,4.93
2018-08-31T22:27:42.249Z,4.70
2018-08-31T22:30:12.585Z,4.60
2018-08-31T22:32:41.808Z,4.40
2018-08-31T22:35:11.253Z,4.17
2018-08-31T22:37:41.520Z,5.00
2018-08-31T22:40:11.140Z,4.13
2018-08-31T22:42:40.471Z,4.93
2018-08-31T22:45:12.946Z,4.90
2018-08-31T22:47:43.841Z,4.33
2018-08-31T22:50:14.006Z,4.13
2018-08-31T22:52:43.512Z,4.57
2018-08-31T22:55:12.803Z,4.07
2018-08-31T22:57:43.287Z,4.30
2018-08-31T23:00:13.207Z,5.27
2018-08-31T23:02:43.683Z,4.77
2018-08-31T23:05:13.193Z,4.30
2018-08-31T23:07:47.697Z,5.23
2018-08-31T23:10:17.339Z,5.50
2018-08-31T23:12:46.912Z,4.53
2018-08-31T23:15:16.474Z,4.70
2018-08-31T23:17:46.711Z,4.80
2018-08-31T23:20:16.329Z,5.30
2018-08-31T23:22:45.846Z,5.23
2018-08-31T23:25:20.679Z,4.50
2018-08-31T23:27:50.468Z,4.93
2018-08-31T23:30:19.929Z,4.97
2018-08-31T23:32:49.437Z,4.50
2018-08-31T23:35:18.975Z,4.67
2018-08-31T23:37:48.636Z,4.43
2018-08-31T23:40:18.408Z,6.20
2018-08-31T23:42:48.305Z,4.23
2018-08-31T23:45:17.762Z,4.33
2018-08-31T23:47:47.291Z,4.50
2018-08-31T23:50:16.950Z,4.30
2018-08-31T23:52:46.791Z,4.60
2018-08-31T23:55:17.573Z,4.80
2018-08-31T23:57:47.311Z,4.50
